Time;durP1;ratioP1;P1;durP2;ratioP2;P2;SDS_P1;SDS_P2;PMS_P1;PMS_P2;Temp;Humidity;BMP_temperature;BMP_pressure;BME280_temperature;BME280_humidity;BME280_pressure;Samples;Min_cycle;Max_cycle;Signal;HPM_P1;HPM_P2
2022/08/22 00:02:12;;;;;;;;;5.33;4.33;;;;;;;;5074194;28;50984;-58
2022/08/22 00:04:50;;;;;;;;;7.00;6.33;;;;;;;;5061066;28;51515;-58
2022/08/22 00:07:23;;;;;;;;;5.00;5.00;;;;;;;;5073251;27;50938;-59
2022/08/22 00:09:51;;;;;;;;;7.00;7.00;;;;;;;;5073904;28;50775;-59
2022/08/22 00:12:20;;;;;;;;;7.00;6.00;;;;;;;;5074156;28;50992;-58
2022/08/22 00:15:08;;;;;;;;;6.00;6.00;;;;;;;;5056863;28;51127;-58
2022/08/22 00:17:33;;;;;;;;;6.00;6.00;;;;;;;;5071697;28;50954;-59
2022/08/22 00:20:01;;;;;;;;;5.00;5.00;;;;;;;;5073802;28;51139;-58
2022/08/22 00:22:26;;;;;;;;;7.33;7.00;;;;;;;;5073950;28;51138;-59
2022/08/22 00:24:59;;;;;;;;;8.33;7.00;;;;;;;;5064989;27;50981;-59
2022/08/22 00:27:27;;;;;;;;;8.00;6.33;;;;;;;;5073628;28;51910;-58
2022/08/22 00:29:59;;;;;;;;;7.00;6.00;;;;;;;;5073886;28;51021;-58
2022/08/22 00:32:26;;;;;;;;;5.00;5.00;;;;;;;;5060991;28;51030;-58
2022/08/22 00:35:01;;;;;;;;;6.33;6.00;;;;;;;;5067882;28;51078;-58
2022/08/22 00:37:46;;;;;;;;;9.33;6.67;;;;;;;;5071465;28;53162;-58
2022/08/22 00:40:17;;;;;;;;;5.33;5.00;;;;;;;;5070713;27;51087;-58
2022/08/22 00:43:00;;;;;;;;;9.00;7.67;;;;;;;;5073596;28;50871;-58
2022/08/22 00:45:28;;;;;;;;;6.67;6.00;;;;;;;;5072625;27;51453;-59
2022/08/22 00:47:54;;;;;;;;;5.00;5.00;;;;;;;;5073104;28;51806;-58
2022/08/22 00:50:32;;;;;;;;;5.67;5.00;;;;;;;;5069180;28;51079;-59
2022/08/22 00:53:20;;;;;;;;;6.00;6.00;;;;;;;;5068022;28;51169;-59
2022/08/22 00:55:52;;;;;;;;;4.00;4.00;;;;;;;;5063508;28;51061;-59
2022/08/22 00:58:35;;;;;;;;;5.00;5.00;;;;;;;;5060008;28;51247;-59
2022/08/22 01:01:04;;;;;;;;;8.00;7.00;;;;;;;;5070067;28;51045;-58
2022/08/22 01:03:39;;;;;;;;;6.33;5.33;;;;;;;;5073441;28;51179;-59
2022/08/22 01:06:24;;;;;;;;;4.00;4.00;;;;;;;;5071961;27;51507;-57
2022/08/22 01:08:56;;;;;;;;;6.33;6.33;;;;;;;;5065492;27;52143;-58
2022/08/22 01:11:29;;;;;;;;;6.67;5.67;;;;;;;;5068768;28;51144;-59
2022/08/22 01:13:57;;;;;;;;;5.67;4.33;;;;;;;;5068272;28;50909;-58
2022/08/22 01:16:37;;;;;;;;;4.67;4.67;;;;;;;;5072046;28;51179;-57
2022/08/22 01:19:08;;;;;;;;;4.67;4.33;;;;;;;;5072458;28;51903;-57
2022/08/22 01:21:45;;;;;;;;;6.00;6.00;;;;;;;;5071248;28;51036;-58
2022/08/22 01:24:29;;;;;;;;;5.33;4.00;;;;;;;;5057714;28;50883;-59
2022/08/22 01:27:14;;;;;;;;;5.00;4.67;;;;;;;;5060255;27;51387;-59
2022/08/22 01:30:00;;;;;;;;;4.67;3.00;;;;;;;;5068847;28;51798;-59
2022/08/22 01:32:40;;;;;;;;;4.67;3.00;;;;;;;;5070449;28;51076;-59
2022/08/22 01:35:18;;;;;;;;;5.00;5.00;;;;;;;;5068445;28;51256;-59
2022/08/22 01:37:58;;;;;;;;;4.00;4.00;;;;;;;;5070294;28;51225;-59
2022/08/22 01:40:26;;;;;;;;;4.67;4.00;;;;;;;;5072480;28;50946;-60
2022/08/22 01:42:57;;;;;;;;;5.00;4.00;;;;;;;;5070704;28;51147;-59
2022/08/22 01:45:25;;;;;;;;;4.00;4.00;;;;;;;;5062685;28;51078;-58
2022/08/22 01:48:11;;;;;;;;;4.00;4.00;;;;;;;;5071304;28;51317;-58
2022/08/22 01:50:56;;;;;;;;;4.67;3.67;;;;;;;;5071065;27;51020;-58
2022/08/22 01:53:51;;;;;;;;;5.33;4.33;;;;;;;;5071374;27;51034;-58
2022/08/22 01:56:18;;;;;;;;;5.33;5.00;;;;;;;;5035342;28;51191;-58
2022/08/22 01:58:52;;;;;;;;;4.67;4.00;;;;;;;;5067677;27;51111;-58
2022/08/22 02:01:23;;;;;;;;;5.33;5.00;;;;;;;;5049381;28;54049;-58
2022/08/22 02:03:54;;;;;;;;;5.00;4.67;;;;;;;;5064044;28;51011;-58
2022/08/22 02:06:23;;;;;;;;;5.67;4.00;;;;;;;;5072185;27;51010;-58
2022/08/22 02:09:03;;;;;;;;;5.00;5.00;;;;;;;;5069119;28;51324;-58
2022/08/22 02:11:48;;;;;;;;;4.00;3.33;;;;;;;;5059377;28;51350;-58
2022/08/22 02:14:19;;;;;;;;;6.00;4.00;;;;;;;;5052014;27;51131;-58
2022/08/22 02:16:47;;;;;;;;;4.00;4.00;;;;;;;;5064036;28;51238;-58
2022/08/22 02:19:15;;;;;;;;;4.00;4.00;;;;;;;;5070580;27;50950;-58
2022/08/22 02:21:54;;;;;;;;;5.33;5.00;;;;;;;;5063745;28;52682;-58
2022/08/22 02:24:43;;;;;;;;;4.67;4.00;;;;;;;;5072304;28;51050;-58
2022/08/22 02:27:08;;;;;;;;;5.00;5.00;;;;;;;;5054539;28;51156;-58
2022/08/22 02:29:49;;;;;;;;;5.00;4.33;;;;;;;;5070021;28;51319;-58
2022/08/22 02:32:20;;;;;;;;;4.00;4.00;;;;;;;;5066638;27;52406;-59
2022/08/22 02:34:55;;;;;;;;;5.00;3.67;;;;;;;;5072013;28;51123;-58
2022/08/22 02:37:39;;;;;;;;;7.33;5.00;;;;;;;;5068773;28;50993;-58
2022/08/22 02:40:05;;;;;;;;;4.00;4.00;;;;;;;;5063361;28;51285;-58
2022/08/22 02:42:42;;;;;;;;;3.00;3.00;;;;;;;;5071889;28;52532;-59
2022/08/22 02:45:07;;;;;;;;;3.67;3.67;;;;;;;;5068097;28;50934;-59
2022/08/22 02:47:42;;;;;;;;;5.00;4.33;;;;;;;;5070427;28;50986;-59
2022/08/22 02:50:07;;;;;;;;;4.00;4.00;;;;;;;;5060066;27;51121;-57
2022/08/22 02:52:40;;;;;;;;;4.33;4.00;;;;;;;;5071503;28;52105;-57
2022/08/22 02:55:07;;;;;;;;;5.00;4.33;;;;;;;;5057135;28;51187;-58
2022/08/22 02:57:37;;;;;;;;;4.00;3.00;;;;;;;;5070565;28;51211;-58
2022/08/22 03:00:14;;;;;;;;;4.00;4.00;;;;;;;;5063784;28;50986;-58
2022/08/22 03:02:52;;;;;;;;;3.00;3.00;;;;;;;;5067404;28;52256;-58
2022/08/22 03:05:22;;;;;;;;;4.67;4.67;;;;;;;;5067142;27;50890;-58
2022/08/22 03:07:54;;;;;;;;;3.33;3.00;;;;;;;;5071428;28;51133;-58
2022/08/22 03:10:22;;;;;;;;;4.67;4.67;;;;;;;;5070864;28;50828;-58
2022/08/22 03:12:47;;;;;;;;;4.00;4.00;;;;;;;;5071312;28;51927;-58
2022/08/22 03:15:20;;;;;;;;;4.00;4.00;;;;;;;;5070691;28;51114;-58
2022/08/22 03:17:52;;;;;;;;;5.00;4.67;;;;;;;;5058090;28;50879;-58
2022/08/22 03:20:26;;;;;;;;;2.00;2.00;;;;;;;;5067628;28;51301;-58
2022/08/22 03:23:08;;;;;;;;;4.00;3.00;;;;;;;;5069840;27;52113;-60
2022/08/22 03:25:57;;;;;;;;;4.00;3.33;;;;;;;;5074719;28;51110;-58
2022/08/22 03:28:25;;;;;;;;;4.00;4.00;;;;;;;;5073887;28;51105;-58
2022/08/22 03:30:59;;;;;;;;;3.00;3.00;;;;;;;;5069054;28;51368;-57
2022/08/22 03:33:26;;;;;;;;;4.67;4.00;;;;;;;;5072921;28;52050;-57
2022/08/22 03:35:58;;;;;;;;;3.00;3.00;;;;;;;;5074693;28;51068;-58
2022/08/22 03:38:27;;;;;;;;;5.00;4.67;;;;;;;;5072065;27;51106;-58
2022/08/22 03:41:07;;;;;;;;;4.00;4.00;;;;;;;;5073131;28;51172;-57
2022/08/22 03:43:42;;;;;;;;;4.00;3.00;;;;;;;;5074141;28;50978;-58
2022/08/22 03:46:26;;;;;;;;;4.00;4.00;;;;;;;;5073756;28;51142;-58
2022/08/22 03:49:20;;;;;;;;;4.67;4.67;;;;;;;;5074346;28;51064;-58
2022/08/22 03:51:51;;;;;;;;;2.67;2.00;;;;;;;;5064227;28;51345;-59
2022/08/22 03:54:22;;;;;;;;;3.67;3.67;;;;;;;;5066437;27;51354;-59
2022/08/22 03:57:07;;;;;;;;;5.67;4.67;;;;;;;;5071209;27;51146;-58
2022/08/22 03:59:35;;;;;;;;;3.00;3.00;;;;;;;;5072942;28;50872;-58
2022/08/22 04:02:06;;;;;;;;;4.00;3.33;;;;;;;;5073492;28;51165;-58
2022/08/22 04:04:44;;;;;;;;;4.00;3.00;;;;;;;;5073929;28;52458;-58
2022/08/22 04:07:34;;;;;;;;;4.00;4.00;;;;;;;;5074194;27;51055;-58
2022/08/22 04:10:11;;;;;;;;;5.00;4.00;;;;;;;;5069394;28;51148;-60
2022/08/22 04:12:45;;;;;;;;;4.00;4.00;;;;;;;;5074461;28;51356;-59
2022/08/22 04:15:34;;;;;;;;;3.00;3.00;;;;;;;;5074024;28;51218;-59
2022/08/22 04:18:08;;;;;;;;;4.33;4.00;;;;;;;;5062392;28;50996;-59
2022/08/22 04:20:52;;;;;;;;;1.00;1.00;;;;;;;;5068948;27;51468;-59
2022/08/22 04:23:23;;;;;;;;;3.33;3.33;;;;;;;;5074248;27;51175;-59
2022/08/22 04:26:20;;;;;;;;;4.67;4.00;;;;;;;;5073835;28;51878;-58
2022/08/22 04:28:48;;;;;;;;;4.00;4.00;;;;;;;;5056316;28;51050;-59
2022/08/22 04:31:16;;;;;;;;;6.00;5.67;;;;;;;;5068694;28;51025;-59
2022/08/22 04:33:50;;;;;;;;;7.33;5.67;;;;;;;;5073309;27;50876;-59
2022/08/22 04:36:18;;;;;;;;;4.00;3.00;;;;;;;;5061447;27;51313;-58
2022/08/22 04:39:13;;;;;;;;;6.67;5.67;;;;;;;;5073245;28;50939;-59
2022/08/22 04:41:48;;;;;;;;;7.00;6.00;;;;;;;;5047662;28;51058;-58
2022/08/22 04:44:22;;;;;;;;;5.33;4.67;;;;;;;;5065125;28;51041;-59
2022/08/22 04:46:50;;;;;;;;;8.00;4.67;;;;;;;;5073158;28;51873;-59
2022/08/22 04:49:34;;;;;;;;;6.33;5.33;;;;;;;;5073425;28;51168;-59
2022/08/22 04:52:25;;;;;;;;;6.00;5.33;;;;;;;;5061478;27;51048;-60
2022/08/22 04:55:07;;;;;;;;;5.33;4.33;;;;;;;;5030907;28;51355;-59
2022/08/22 04:57:49;;;;;;;;;6.00;6.00;;;;;;;;5067482;28;52521;-58
2022/08/22 05:00:15;;;;;;;;;3.00;3.00;;;;;;;;5072055;28;51048;-58
2022/08/22 05:02:46;;;;;;;;;4.33;4.33;;;;;;;;5071998;28;51085;-59
2022/08/22 05:05:14;;;;;;;;;3.67;3.67;;;;;;;;5072419;28;51191;-58
2022/08/22 05:07:45;;;;;;;;;5.67;5.00;;;;;;;;5056865;27;51761;-58
2022/08/22 05:10:34;;;;;;;;;6.67;5.00;;;;;;;;5045646;28;50970;-58
2022/08/22 05:13:08;;;;;;;;;4.67;4.67;;;;;;;;5053157;28;51100;-59
2022/08/22 05:15:35;;;;;;;;;6.00;5.33;;;;;;;;5045050;28;51049;-59
2022/08/22 05:18:06;;;;;;;;;6.33;6.00;;;;;;;;5050889;28;51867;-59
2022/08/22 05:20:32;;;;;;;;;6.00;6.00;;;;;;;;5052876;28;51135;-59
2022/08/22 05:23:19;;;;;;;;;4.00;4.00;;;;;;;;5036241;28;51174;-59
2022/08/22 05:25:45;;;;;;;;;5.67;5.00;;;;;;;;5052039;28;51103;-59
2022/08/22 05:28:16;;;;;;;;;6.00;6.00;;;;;;;;5052496;28;51791;-59
2022/08/22 05:30:44;;;;;;;;;6.00;5.00;;;;;;;;5051347;28;51056;-58
2022/08/22 05:33:10;;;;;;;;;4.67;4.33;;;;;;;;5049908;28;51126;-58
2022/08/22 05:35:36;;;;;;;;;3.33;3.33;;;;;;;;5053064;28;51242;-58
2022/08/22 05:38:03;;;;;;;;;7.00;5.67;;;;;;;;5052537;28;51253;-60
2022/08/22 05:40:30;;;;;;;;;6.00;4.67;;;;;;;;5028744;28;50970;-59
2022/08/22 05:42:56;;;;;;;;;5.67;5.33;;;;;;;;5051974;28;51070;-62
2022/08/22 05:45:22;;;;;;;;;4.67;4.67;;;;;;;;5052363;28;51120;-59
2022/08/22 05:47:53;;;;;;;;;6.00;4.67;;;;;;;;5052014;28;50980;-62
2022/08/22 05:50:22;;;;;;;;;6.00;5.67;;;;;;;;5044699;28;50959;-59
2022/08/22 05:53:00;;;;;;;;;5.33;5.33;;;;;;;;5047219;28;51070;-59
2022/08/22 05:55:25;;;;;;;;;8.00;6.00;;;;;;;;5049521;28;50995;-59
2022/08/22 05:58:16;;;;;;;;;7.33;5.67;;;;;;;;5038598;28;52191;-59
2022/08/22 06:00:44;;;;;;;;;4.00;4.00;;;;;;;;5045797;28;51235;-59
2022/08/22 06:03:25;;;;;;;;;7.33;5.00;;;;;;;;5051689;28;51221;-59
2022/08/22 06:05:51;;;;;;;;;5.00;5.00;;;;;;;;5053238;28;50936;-59
2022/08/22 06:08:22;;;;;;;;;6.00;5.00;;;;;;;;5065814;28;53929;-59
2022/08/22 06:10:56;;;;;;;;;5.33;5.33;;;;;;;;5066696;28;51159;-58
2022/08/22 06:13:21;;;;;;;;;6.33;6.00;;;;;;;;5064464;28;51126;-58
2022/08/22 06:16:01;;;;;;;;;5.00;4.00;;;;;;;;5072464;28;51090;-59
2022/08/22 06:18:28;;;;;;;;;4.67;4.00;;;;;;;;5071725;27;51170;-58
2022/08/22 06:21:01;;;;;;;;;5.33;4.67;;;;;;;;5072461;27;51073;-60
2022/08/22 06:23:28;;;;;;;;;4.00;4.00;;;;;;;;5072480;27;51009;-59
2022/08/22 06:25:56;;;;;;;;;7.00;6.33;;;;;;;;5072340;27;51452;-59
2022/08/22 06:28:24;;;;;;;;;7.00;6.33;;;;;;;;5070756;27;51979;-58
2022/08/22 06:30:54;;;;;;;;;7.00;6.00;;;;;;;;5058776;28;51203;-59
2022/08/22 06:33:25;;;;;;;;;8.33;7.00;;;;;;;;5071595;27;51023;-60
2022/08/22 06:38:57;;;;;;;;;6.00;4.33;;;;;;;;5071661;28;51076;-59
2022/08/22 06:41:25;;;;;;;;;4.33;4.00;;;;;;;;5059827;27;50989;-59
2022/08/22 06:43:53;;;;;;;;;3.67;3.67;;;;;;;;5065798;28;51013;-59
2022/08/22 06:46:21;;;;;;;;;6.00;6.00;;;;;;;;5059531;27;50992;-59
2022/08/22 06:48:47;;;;;;;;;6.33;6.33;;;;;;;;5069973;28;51207;-59
2022/08/22 06:51:14;;;;;;;;;8.00;6.67;;;;;;;;5071395;28;50999;-58
2022/08/22 06:53:44;;;;;;;;;7.00;6.00;;;;;;;;5070241;28;51261;-59
2022/08/22 06:56:10;;;;;;;;;4.67;4.67;;;;;;;;5071419;28;50912;-60
2022/08/22 06:58:43;;;;;;;;;5.00;5.00;;;;;;;;5073333;28;53554;-59
2022/08/22 07:01:11;;;;;;;;;6.33;6.00;;;;;;;;5075087;27;50932;-59
2022/08/22 07:03:38;;;;;;;;;6.00;5.67;;;;;;;;5066355;28;51302;-60
2022/08/22 07:06:04;;;;;;;;;6.33;6.33;;;;;;;;5071179;28;50932;-59
2022/08/22 07:08:31;;;;;;;;;5.00;5.00;;;;;;;;5074678;27;52536;-59
2022/08/22 07:11:07;;;;;;;;;5.00;5.00;;;;;;;;5063533;28;51091;-59
2022/08/22 07:13:34;;;;;;;;;6.33;6.33;;;;;;;;5075033;28;50961;-58
2022/08/22 07:16:03;;;;;;;;;5.33;4.33;;;;;;;;5075149;27;51226;-58
2022/08/22 07:18:30;;;;;;;;;5.00;5.00;;;;;;;;5072815;27;52148;-59
2022/08/22 07:20:58;;;;;;;;;7.33;6.67;;;;;;;;5060264;28;51095;-59
2022/08/22 07:23:30;;;;;;;;;11.00;10.00;;;;;;;;5075088;28;51068;-59
2022/08/22 07:25:58;;;;;;;;;6.33;5.00;;;;;;;;5075079;28;51216;-60
2022/08/22 07:28:26;;;;;;;;;6.00;6.00;;;;;;;;5073136;28;52144;-60
2022/08/22 07:31:08;;;;;;;;;5.00;4.00;;;;;;;;5073167;28;51203;-59
2022/08/22 07:33:34;;;;;;;;;8.00;7.00;;;;;;;;5074186;27;51007;-59
2022/08/22 07:36:00;;;;;;;;;7.00;6.00;;;;;;;;5073605;28;51365;-60
2022/08/22 07:38:28;;;;;;;;;7.33;6.67;;;;;;;;5071731;27;53531;-59
2022/08/22 07:41:07;;;;;;;;;4.00;4.00;;;;;;;;5074768;28;51106;-60
2022/08/22 07:43:32;;;;;;;;;5.00;4.33;;;;;;;;5052757;28;51028;-60
2022/08/22 07:45:59;;;;;;;;;7.67;6.33;;;;;;;;5066730;28;50839;-59
2022/08/22 07:48:28;;;;;;;;;8.00;6.00;;;;;;;;5073959;27;50929;-60
2022/08/22 07:50:56;;;;;;;;;14.67;11.67;;;;;;;;5074545;27;51091;-60
2022/08/22 07:53:32;;;;;;;;;5.00;5.00;;;;;;;;5069144;27;51258;-59
2022/08/22 07:55:59;;;;;;;;;7.00;7.00;;;;;;;;5074298;28;51065;-59
2022/08/22 07:58:27;;;;;;;;;6.67;5.33;;;;;;;;5076538;27;51541;-60
2022/08/22 08:00:53;;;;;;;;;6.00;6.00;;;;;;;;5074217;28;51039;-60
2022/08/22 08:03:20;;;;;;;;;5.00;4.00;;;;;;;;5072497;28;51187;-60
2022/08/22 08:05:46;;;;;;;;;5.67;5.67;;;;;;;;5074547;28;51044;-60
2022/08/22 08:08:15;;;;;;;;;6.00;6.00;;;;;;;;5069483;27;51979;-59
2022/08/22 08:10:41;;;;;;;;;5.00;5.00;;;;;;;;5069376;28;51135;-60
2022/08/22 08:13:09;;;;;;;;;8.33;7.00;;;;;;;;5074538;28;51084;-59
2022/08/22 08:15:36;;;;;;;;;7.33;7.00;;;;;;;;5074378;28;51208;-59
2022/08/22 08:18:06;;;;;;;;;6.00;5.67;;;;;;;;5073863;27;51085;-60
2022/08/22 08:20:34;;;;;;;;;7.67;7.00;;;;;;;;5074013;28;51138;-59
2022/08/22 08:23:00;;;;;;;;;5.00;4.33;;;;;;;;5074182;28;51034;-58
2022/08/22 08:25:26;;;;;;;;;4.67;4.67;;;;;;;;5073163;27;51213;-60
2022/08/22 08:30:39;;;;;;;;;6.00;5.33;;;;;;;;5074290;28;51046;-59
2022/08/22 08:33:05;;;;;;;;;5.00;4.67;;;;;;;;5073930;28;50957;-59
2022/08/22 08:35:34;;;;;;;;;5.33;4.33;;;;;;;;5073917;28;51173;-59
2022/08/22 08:38:14;;;;;;;;;8.00;6.00;;;;;;;;5073719;27;52269;-59
2022/08/22 08:40:58;;;;;;;;;5.00;4.00;;;;;;;;5074138;27;50914;-60
2022/08/22 08:43:33;;;;;;;;;5.00;5.00;;;;;;;;5071083;27;50874;-60
2022/08/22 08:46:01;;;;;;;;;5.33;4.00;;;;;;;;5073866;27;50911;-60
2022/08/22 08:48:36;;;;;;;;;5.67;5.33;;;;;;;;5073098;27;51202;-59
2022/08/22 08:51:01;;;;;;;;;0.00;0.00;;;;;;;;5073643;27;51160;-59
2022/08/22 08:53:26;;;;;;;;;4.00;3.00;;;;;;;;5073486;27;50955;-60
2022/08/22 08:56:04;;;;;;;;;5.00;3.33;;;;;;;;5074139;28;51079;-59
2022/08/22 08:58:30;;;;;;;;;3.00;3.00;;;;;;;;5067175;28;51892;-59
2022/08/22 09:01:10;;;;;;;;;4.67;3.33;;;;;;;;5066433;28;51646;-59
2022/08/22 09:03:47;;;;;;;;;7.00;5.67;;;;;;;;5072795;27;50990;-59
2022/08/22 09:06:31;;;;;;;;;3.00;3.00;;;;;;;;5073127;27;51267;-60
2022/08/22 09:09:20;;;;;;;;;5.00;4.00;;;;;;;;5072615;27;53107;-60
2022/08/22 09:11:45;;;;;;;;;3.67;3.67;;;;;;;;5072784;28;51125;-60
2022/08/22 09:14:38;;;;;;;;;3.00;2.00;;;;;;;;5069202;27;51046;-60
2022/08/22 09:17:38;;;;;;;;;4.00;4.00;;;;;;;;5067443;28;50893;-60
2022/08/22 09:20:07;;;;;;;;;4.00;3.33;;;;;;;;5049441;28;51181;-60
2022/08/22 09:22:51;;;;;;;;;1.00;1.00;;;;;;;;5057431;28;51178;-60
2022/08/22 09:25:25;;;;;;;;;3.67;3.67;;;;;;;;5073014;27;50886;-59
2022/08/22 09:28:06;;;;;;;;;1.67;1.67;;;;;;;;5072958;28;51027;-59
2022/08/22 09:30:47;;;;;;;;;3.00;3.00;;;;;;;;5072554;28;52001;-60
2022/08/22 09:33:14;;;;;;;;;4.00;3.33;;;;;;;;5058194;27;51043;-59
2022/08/22 09:35:43;;;;;;;;;1.67;1.67;;;;;;;;5072845;27;51039;-59
2022/08/22 09:38:11;;;;;;;;;4.00;4.00;;;;;;;;5073050;27;51003;-60
2022/08/22 09:40:42;;;;;;;;;3.33;3.33;;;;;;;;5072518;27;51110;-60
2022/08/22 09:43:20;;;;;;;;;5.00;4.00;;;;;;;;5070927;28;51011;-60
2022/08/22 09:46:03;;;;;;;;;2.67;2.33;;;;;;;;5072446;27;50980;-60
2022/08/22 09:48:36;;;;;;;;;3.00;2.00;;;;;;;;5068592;27;51747;-60
2022/08/22 09:51:14;;;;;;;;;4.33;4.00;;;;;;;;5064783;28;51070;-60
2022/08/22 09:53:42;;;;;;;;;4.00;3.67;;;;;;;;5071892;28;50961;-60
2022/08/22 09:56:26;;;;;;;;;4.67;4.00;;;;;;;;5071928;28;50977;-60
2022/08/22 09:58:54;;;;;;;;;3.00;3.00;;;;;;;;5066251;27;51063;-60
2022/08/22 10:01:22;;;;;;;;;3.00;3.00;;;;;;;;5071417;27;52116;-60
2022/08/22 10:04:02;;;;;;;;;4.00;3.00;;;;;;;;5071392;28;50961;-59
2022/08/22 10:06:37;;;;;;;;;3.00;3.00;;;;;;;;5067388;27;51116;-59
2022/08/22 10:09:29;;;;;;;;;2.33;2.33;;;;;;;;5067165;28;51021;-60
2022/08/22 10:11:57;;;;;;;;;3.33;3.33;;;;;;;;5055466;28;51776;-60
2022/08/22 10:14:48;;;;;;;;;3.00;3.00;;;;;;;;5071945;27;51004;-60
2022/08/22 10:17:17;;;;;;;;;2.00;2.00;;;;;;;;5041573;28;51112;-60
2022/08/22 10:19:46;;;;;;;;;2.00;1.67;;;;;;;;5072059;27;51312;-60
2022/08/22 10:22:11;;;;;;;;;2.00;2.00;;;;;;;;5067851;27;51198;-60
2022/08/22 10:24:42;;;;;;;;;4.33;4.00;;;;;;;;5071894;28;51060;-60
2022/08/22 10:27:16;;;;;;;;;3.00;2.00;;;;;;;;5071857;28;51069;-60
2022/08/22 10:30:02;;;;;;;;;3.67;3.67;;;;;;;;5071885;28;51352;-60
2022/08/22 10:32:40;;;;;;;;;0.00;0.00;;;;;;;;5060288;28;52061;-60
2022/08/22 10:35:25;;;;;;;;;6.00;6.00;;;;;;;;5074969;28;51032;-60
2022/08/22 10:37:56;;;;;;;;;2.67;2.00;;;;;;;;5066686;27;51231;-60
2022/08/22 10:40:29;;;;;;;;;2.00;2.00;;;;;;;;5074888;28;51252;-60
2022/08/22 10:43:01;;;;;;;;;2.00;2.00;;;;;;;;5074763;28;51939;-59
2022/08/22 10:45:35;;;;;;;;;4.00;4.00;;;;;;;;5073587;28;50933;-59
2022/08/22 10:48:03;;;;;;;;;1.33;1.33;;;;;;;;5074762;27;51393;-60
2022/08/22 10:50:29;;;;;;;;;1.67;1.67;;;;;;;;5075083;28;51339;-61
2022/08/22 10:55:44;;;;;;;;;2.67;2.67;;;;;;;;5066879;28;51048;-60
2022/08/22 10:58:12;;;;;;;;;4.00;3.33;;;;;;;;5073481;28;50931;-60
2022/08/22 11:00:37;;;;;;;;;3.67;3.67;;;;;;;;5075032;28;51301;-59
2022/08/22 11:03:17;;;;;;;;;3.00;2.00;;;;;;;;5074150;28;51875;-60
2022/08/22 11:05:46;;;;;;;;;3.00;3.00;;;;;;;;5074835;27;51068;-60
2022/08/22 11:08:31;;;;;;;;;4.00;3.33;;;;;;;;5075081;28;51015;-61
2022/08/22 11:11:10;;;;;;;;;3.00;3.00;;;;;;;;5065252;27;51207;-59
2022/08/22 11:13:53;;;;;;;;;2.67;2.67;;;;;;;;5074247;28;50944;-60
2022/08/22 11:16:19;;;;;;;;;3.33;2.33;;;;;;;;5062208;28;50949;-59
2022/08/22 11:18:46;;;;;;;;;1.00;1.00;;;;;;;;5074193;27;51013;-60
2022/08/22 11:21:14;;;;;;;;;1.33;1.00;;;;;;;;5074691;27;51475;-60
2022/08/22 11:23:49;;;;;;;;;2.00;2.00;;;;;;;;5072794;28;51138;-63
2022/08/22 11:26:16;;;;;;;;;4.00;3.00;;;;;;;;5064186;28;51119;-60
2022/08/22 11:28:44;;;;;;;;;1.33;1.33;;;;;;;;5073878;27;51055;-60
2022/08/22 11:31:20;;;;;;;;;1.00;1.00;;;;;;;;5074341;28;51330;-60
2022/08/22 11:34:02;;;;;;;;;1.67;1.00;;;;;;;;5073860;27;51969;-60
2022/08/22 11:36:34;;;;;;;;;2.33;2.33;;;;;;;;5074619;28;50866;-60
2022/08/22 11:39:07;;;;;;;;;7.67;7.00;;;;;;;;5074522;28;50973;-60
2022/08/22 11:41:40;;;;;;;;;2.33;2.33;;;;;;;;5074352;27;51065;-60
2022/08/22 11:44:13;;;;;;;;;2.67;2.00;;;;;;;;5071877;27;51890;-60
2022/08/22 11:46:41;;;;;;;;;3.00;2.67;;;;;;;;5073969;28;50922;-60
2022/08/22 11:49:26;;;;;;;;;5.33;5.00;;;;;;;;5073963;28;51061;-60
2022/08/22 11:51:56;;;;;;;;;0.67;0.67;;;;;;;;5074498;27;51229;-60
2022/08/22 11:54:36;;;;;;;;;2.67;2.00;;;;;;;;5067458;28;51131;-59
2022/08/22 11:57:10;;;;;;;;;5.33;5.33;;;;;;;;5073781;27;51203;-60
2022/08/22 11:59:41;;;;;;;;;2.00;2.00;;;;;;;;5070727;27;51102;-60
2022/08/22 12:02:28;;;;;;;;;3.00;2.00;;;;;;;;5073583;28;51099;-60
2022/08/22 12:05:01;;;;;;;;;3.33;2.67;;;;;;;;5074090;27;52680;-60
2022/08/22 12:07:28;;;;;;;;;2.00;2.00;;;;;;;;5073956;28;51206;-60
2022/08/22 12:09:58;;;;;;;;;4.00;4.00;;;;;;;;5071900;28;50965;-60
2022/08/22 12:12:42;;;;;;;;;6.00;5.00;;;;;;;;5074244;28;51020;-60
2022/08/22 12:15:14;;;;;;;;;2.00;1.00;;;;;;;;5066506;27;52179;-59
2022/08/22 12:17:59;;;;;;;;;2.33;1.67;;;;;;;;5085875;27;50991;-60
2022/08/22 12:20:24;;;;;;;;;2.00;2.00;;;;;;;;5073904;27;50926;-59
2022/08/22 12:23:08;;;;;;;;;1.00;1.00;;;;;;;;5067917;27;51300;-60
2022/08/22 12:25:46;;;;;;;;;2.00;1.00;;;;;;;;5071553;28;51606;-59
2022/08/22 12:28:11;;;;;;;;;4.00;4.00;;;;;;;;5073677;27;51021;-59
2022/08/22 12:30:52;;;;;;;;;2.33;2.33;;;;;;;;5073572;27;51056;-60
2022/08/22 12:33:29;;;;;;;;;3.00;3.00;;;;;;;;5069326;27;50874;-59
2022/08/22 12:36:18;;;;;;;;;2.00;2.00;;;;;;;;5071867;28;53031;-60
2022/08/22 12:38:52;;;;;;;;;2.00;2.00;;;;;;;;5072145;28;51214;-59
2022/08/22 12:41:36;;;;;;;;;2.33;2.33;;;;;;;;5073653;28;51119;-60
2022/08/22 12:44:21;;;;;;;;;4.00;3.00;;;;;;;;5073254;27;51080;-59
2022/08/22 12:47:05;;;;;;;;;2.00;2.00;;;;;;;;5066503;28;52488;-59
2022/08/22 12:49:30;;;;;;;;;12.00;11.33;;;;;;;;5071932;27;50986;-59
2022/08/22 12:52:08;;;;;;;;;1.00;1.00;;;;;;;;5073635;28;50996;-59
2022/08/22 12:54:54;;;;;;;;;2.67;2.67;;;;;;;;5073154;28;50951;-59
2022/08/22 12:57:34;;;;;;;;;2.33;2.33;;;;;;;;5073026;28;52134;-62
2022/08/22 13:00:17;;;;;;;;;2.33;2.33;;;;;;;;5060185;28;51150;-60
2022/08/22 13:02:43;;;;;;;;;3.00;3.00;;;;;;;;5068634;28;52207;-60
2022/08/22 13:05:12;;;;;;;;;2.33;2.33;;;;;;;;5072744;27;50934;-61
2022/08/22 13:07:39;;;;;;;;;1.67;1.67;;;;;;;;5072198;27;51506;-60
2022/08/22 13:10:14;;;;;;;;;2.00;2.00;;;;;;;;5073195;28;50877;-60
2022/08/22 13:12:44;;;;;;;;;2.33;2.00;;;;;;;;5072581;28;51029;-60
2022/08/22 13:15:27;;;;;;;;;1.33;1.33;;;;;;;;5072814;28;50982;-60
2022/08/22 13:17:53;;;;;;;;;1.33;1.00;;;;;;;;5059603;28;52173;-60
2022/08/22 13:20:30;;;;;;;;;1.00;1.00;;;;;;;;5072509;28;50973;-59
2022/08/22 13:22:57;;;;;;;;;0.33;0.33;;;;;;;;5066438;27;50992;-60
2022/08/22 13:25:24;;;;;;;;;2.00;2.00;;;;;;;;5067494;28;50963;-59
2022/08/22 13:27:51;;;;;;;;;0.33;0.33;;;;;;;;5072770;28;51084;-61
2022/08/22 13:30:20;;;;;;;;;0.67;0.67;;;;;;;;5072874;27;50851;-60
2022/08/22 13:32:46;;;;;;;;;0.00;0.00;;;;;;;;5072303;28;50930;-60
2022/08/22 13:35:30;;;;;;;;;1.00;1.00;;;;;;;;5072766;28;51168;-60
2022/08/22 13:38:02;;;;;;;;;1.67;1.67;;;;;;;;5072388;28;51199;-59
2022/08/22 13:40:29;;;;;;;;;2.00;1.00;;;;;;;;5064691;27;51021;-60
2022/08/22 13:43:06;;;;;;;;;1.00;1.00;;;;;;;;5072148;28;50935;-60
2022/08/22 13:45:33;;;;;;;;;1.00;1.00;;;;;;;;5072532;28;50981;-60
2022/08/22 13:48:07;;;;;;;;;2.33;2.33;;;;;;;;5071525;27;51141;-59
2022/08/22 13:50:35;;;;;;;;;3.33;1.33;;;;;;;;5072252;27;50932;-60
2022/08/22 13:53:12;;;;;;;;;1.33;1.33;;;;;;;;5071543;28;50997;-60
2022/08/22 13:55:43;;;;;;;;;1.00;1.00;;;;;;;;5064567;27;51200;-60
2022/08/22 13:58:14;;;;;;;;;1.00;1.00;;;;;;;;5070525;28;51986;-60
2022/08/22 14:00:58;;;;;;;;;1.33;1.33;;;;;;;;5068661;27;51108;-60
2022/08/22 14:03:36;;;;;;;;;2.00;1.33;;;;;;;;5060350;28;51202;-60
2022/08/22 14:06:09;;;;;;;;;1.67;1.67;;;;;;;;5072455;27;51094;-59
2022/08/22 14:08:35;;;;;;;;;2.00;2.00;;;;;;;;5071459;27;50933;-60
2022/08/22 14:11:18;;;;;;;;;1.00;1.00;;;;;;;;5071697;28;51070;-58
2022/08/22 14:13:46;;;;;;;;;2.00;2.00;;;;;;;;5069901;27;50985;-59
2022/08/22 14:16:20;;;;;;;;;1.00;1.00;;;;;;;;5072381;28;50894;-59
2022/08/22 14:18:50;;;;;;;;;2.00;2.00;;;;;;;;5070867;27;51134;-60
2022/08/22 14:21:34;;;;;;;;;1.00;1.00;;;;;;;;5071820;28;51105;-58
2022/08/22 14:24:05;;;;;;;;;2.00;2.00;;;;;;;;5071515;27;51161;-60
2022/08/22 14:26:34;;;;;;;;;2.67;2.67;;;;;;;;5071999;28;50929;-60
2022/08/22 14:29:01;;;;;;;;;3.00;3.00;;;;;;;;5066100;27;51017;-60
2022/08/22 14:31:28;;;;;;;;;2.33;2.33;;;;;;;;5071802;28;51195;-60
2022/08/22 14:33:56;;;;;;;;;1.67;1.00;;;;;;;;5071288;27;51227;-59
2022/08/22 14:36:34;;;;;;;;;2.00;2.00;;;;;;;;5072026;27;51064;-60
2022/08/22 14:39:05;;;;;;;;;2.00;2.00;;;;;;;;5071438;28;51946;-60
2022/08/22 14:41:35;;;;;;;;;2.00;1.00;;;;;;;;5071551;28;50940;-60
2022/08/22 14:44:04;;;;;;;;;2.00;1.33;;;;;;;;5071630;28;51045;-60
2022/08/22 14:46:46;;;;;;;;;2.00;1.33;;;;;;;;5067585;27;51395;-59
2022/08/22 14:49:31;;;;;;;;;1.00;1.00;;;;;;;;5070783;28;52310;-60
2022/08/22 14:52:10;;;;;;;;;2.00;1.00;;;;;;;;5071074;28;50988;-60
2022/08/22 14:54:36;;;;;;;;;1.00;1.00;;;;;;;;5071296;27;51055;-60
2022/08/22 14:57:05;;;;;;;;;2.33;2.33;;;;;;;;5069675;28;50887;-60
2022/08/22 14:59:43;;;;;;;;;3.00;3.00;;;;;;;;5071019;28;52030;-60
2022/08/22 15:02:13;;;;;;;;;0.33;0.33;;;;;;;;5065559;28;51361;-60
2022/08/22 15:04:41;;;;;;;;;1.00;1.00;;;;;;;;5069333;28;51150;-59
2022/08/22 15:07:08;;;;;;;;;1.00;1.00;;;;;;;;5068696;27;50947;-60
2022/08/22 15:09:36;;;;;;;;;0.00;0.00;;;;;;;;5070621;28;51103;-59
2022/08/22 15:12:04;;;;;;;;;0.00;0.00;;;;;;;;5070782;27;50972;-58
2022/08/22 15:14:35;;;;;;;;;1.00;1.00;;;;;;;;5069667;28;50991;-60
2022/08/22 15:17:02;;;;;;;;;0.00;0.00;;;;;;;;5069621;28;50894;-59
2022/08/22 15:19:31;;;;;;;;;0.33;0.33;;;;;;;;5071872;28;52069;-60
2022/08/22 15:22:02;;;;;;;;;2.00;1.00;;;;;;;;5074115;28;51053;-60
2022/08/22 15:24:28;;;;;;;;;4.00;4.00;;;;;;;;5074128;28;50910;-59
2022/08/22 15:26:54;;;;;;;;;1.00;1.00;;;;;;;;5072484;28;51001;-60
2022/08/22 15:29:22;;;;;;;;;1.67;1.33;;;;;;;;5074120;28;51243;-60